sensor_id;sensor_type;location;lat;lon;timestamp;P1;durP1;ratioP1;P2;durP2;ratioP2
10381;SDS011;11635;53.636;10.120;2022-12-20T00:00:41;11.73;;;8.80;;
10381;SDS011;11635;53.636;10.120;2022-12-20T00:03:08;13.82;;;9.15;;
10381;SDS011;11635;53.636;10.120;2022-12-20T00:05:35;9.68;;;8.32;;
10381;SDS011;11635;53.636;10.120;2022-12-20T00:08:02;10.82;;;8.07;;
10381;SDS011;11635;53.636;10.120;2022-12-20T00:10:29;11.38;;;8.27;;
10381;SDS011;11635;53.636;10.120;2022-12-20T00:12:55;11.50;;;9.02;;
10381;SDS011;11635;53.636;10.120;2022-12-20T00:15:21;12.40;;;9.13;;
10381;SDS011;11635;53.636;10.120;2022-12-20T00:17:48;12.93;;;8.85;;
10381;SDS011;11635;53.636;10.120;2022-12-20T00:20:14;11.82;;;8.75;;
10381;SDS011;11635;53.636;10.120;2022-12-20T00:22:40;12.68;;;9.70;;
10381;SDS011;11635;53.636;10.120;2022-12-20T00:25:08;13.48;;;8.95;;
10381;SDS011;11635;53.636;10.120;2022-12-20T00:27:35;12.57;;;8.75;;
10381;SDS011;11635;53.636;10.120;2022-12-20T00:30:01;12.55;;;8.85;;
10381;SDS011;11635;53.636;10.120;2022-12-20T00:32:27;13.15;;;9.85;;
10381;SDS011;11635;53.636;10.120;2022-12-20T00:34:54;11.95;;;8.38;;
10381;SDS011;11635;53.636;10.120;2022-12-20T00:37:20;11.00;;;8.27;;
10381;SDS011;11635;53.636;10.120;2022-12-20T00:39:46;11.15;;;9.10;;
10381;SDS011;11635;53.636;10.120;2022-12-20T00:42:14;12.23;;;8.98;;
10381;SDS011;11635;53.636;10.120;2022-12-20T00:44:40;13.95;;;8.40;;
10381;SDS011;11635;53.636;10.120;2022-12-20T00:47:07;11.68;;;8.70;;
10381;SDS011;11635;53.636;10.120;2022-12-20T00:49:33;11.73;;;8.45;;
10381;SDS011;11635;53.636;10.120;2022-12-20T00:51:59;12.73;;;8.68;;
10381;SDS011;11635;53.636;10.120;2022-12-20T00:54:26;12.50;;;8.70;;
10381;SDS011;11635;53.636;10.120;2022-12-20T00:56:52;10.82;;;8.60;;
10381;SDS011;11635;53.636;10.120;2022-12-20T00:59:20;10.85;;;8.82;;
10381;SDS011;11635;53.636;10.120;2022-12-20T01:01:46;10.75;;;8.70;;
10381;SDS011;11635;53.636;10.120;2022-12-20T01:04:14;12.27;;;8.55;;
10381;SDS011;11635;53.636;10.120;2022-12-20T01:06:40;14.68;;;9.35;;
10381;SDS011;11635;53.636;10.120;2022-12-20T01:09:06;13.88;;;8.70;;
10381;SDS011;11635;53.636;10.120;2022-12-20T01:11:33;9.93;;;8.52;;
10381;SDS011;11635;53.636;10.120;2022-12-20T01:14:01;11.32;;;8.73;;
10381;SDS011;11635;53.636;10.120;2022-12-20T01:16:29;13.15;;;8.50;;
10381;SDS011;11635;53.636;10.120;2022-12-20T01:18:56;9.38;;;7.78;;
10381;SDS011;11635;53.636;10.120;2022-12-20T01:21:23;11.07;;;8.27;;
10381;SDS011;11635;53.636;10.120;2022-12-20T01:23:50;14.32;;;8.98;;
10381;SDS011;11635;53.636;10.120;2022-12-20T01:26:17;12.80;;;8.95;;
10381;SDS011;11635;53.636;10.120;2022-12-20T01:28:45;11.32;;;8.80;;
10381;SDS011;11635;53.636;10.120;2022-12-20T01:31:12;12.73;;;8.23;;
10381;SDS011;11635;53.636;10.120;2022-12-20T01:33:40;12.10;;;8.55;;
10381;SDS011;11635;53.636;10.120;2022-12-20T01:36:09;13.00;;;8.80;;
10381;SDS011;11635;53.636;10.120;2022-12-20T01:38:35;11.57;;;8.98;;
10381;SDS011;11635;53.636;10.120;2022-12-20T01:41:02;9.82;;;8.50;;
10381;SDS011;11635;53.636;10.120;2022-12-20T01:43:43;10.35;;;8.40;;
10381;SDS011;11635;53.636;10.120;2022-12-20T01:46:10;11.65;;;7.68;;
10381;SDS011;11635;53.636;10.120;2022-12-20T01:48:36;9.02;;;8.05;;
10381;SDS011;11635;53.636;10.120;2022-12-20T01:51:04;11.77;;;8.38;;
10381;SDS011;11635;53.636;10.120;2022-12-20T01:53:31;14.13;;;9.15;;
10381;SDS011;11635;53.636;10.120;2022-12-20T01:55:57;12.23;;;8.43;;
10381;SDS011;11635;53.636;10.120;2022-12-20T01:58:25;12.50;;;8.43;;
10381;SDS011;11635;53.636;10.120;2022-12-20T02:00:51;12.52;;;8.98;;
10381;SDS011;11635;53.636;10.120;2022-12-20T02:03:17;10.30;;;8.13;;
10381;SDS011;11635;53.636;10.120;2022-12-20T02:05:44;12.27;;;8.80;;
10381;SDS011;11635;53.636;10.120;2022-12-20T02:08:13;12.00;;;8.40;;
10381;SDS011;11635;53.636;10.120;2022-12-20T02:10:45;11.27;;;8.25;;
10381;SDS011;11635;53.636;10.120;2022-12-20T02:13:17;14.10;;;8.75;;
10381;SDS011;11635;53.636;10.120;2022-12-20T02:15:48;11.52;;;9.05;;
10381;SDS011;11635;53.636;10.120;2022-12-20T02:18:18;10.85;;;8.63;;
10381;SDS011;11635;53.636;10.120;2022-12-20T02:21:00;12.35;;;8.00;;
10381;SDS011;11635;53.636;10.120;2022-12-20T02:23:41;10.70;;;7.82;;
10381;SDS011;11635;53.636;10.120;2022-12-20T02:26:14;11.10;;;8.63;;
10381;SDS011;11635;53.636;10.120;2022-12-20T02:28:53;10.95;;;7.65;;
10381;SDS011;11635;53.636;10.120;2022-12-20T02:31:23;11.65;;;7.47;;
10381;SDS011;11635;53.636;10.120;2022-12-20T02:33:51;12.65;;;8.57;;
10381;SDS011;11635;53.636;10.120;2022-12-20T02:36:19;10.13;;;7.32;;
10381;SDS011;11635;53.636;10.120;2022-12-20T02:38:46;8.68;;;7.55;;
10381;SDS011;11635;53.636;10.120;2022-12-20T02:41:14;9.65;;;7.22;;
10381;SDS011;11635;53.636;10.120;2022-12-20T02:43:44;10.68;;;7.90;;
10381;SDS011;11635;53.636;10.120;2022-12-20T02:46:29;10.55;;;7.38;;
10381;SDS011;11635;53.636;10.120;2022-12-20T02:48:58;11.13;;;7.97;;
10381;SDS011;11635;53.636;10.120;2022-12-20T02:51:26;9.75;;;7.15;;
10381;SDS011;11635;53.636;10.120;2022-12-20T02:53:54;9.98;;;8.25;;
10381;SDS011;11635;53.636;10.120;2022-12-20T02:56:24;9.45;;;7.60;;
10381;SDS011;11635;53.636;10.120;2022-12-20T02:58:54;11.35;;;7.70;;
10381;SDS011;11635;53.636;10.120;2022-12-20T03:01:22;8.55;;;6.85;;
10381;SDS011;11635;53.636;10.120;2022-12-20T03:03:51;10.73;;;7.28;;
10381;SDS011;11635;53.636;10.120;2022-12-20T03:06:19;9.90;;;7.20;;
10381;SDS011;11635;53.636;10.120;2022-12-20T03:08:45;10.80;;;7.43;;
10381;SDS011;11635;53.636;10.120;2022-12-20T03:11:12;10.10;;;6.93;;
10381;SDS011;11635;53.636;10.120;2022-12-20T03:13:38;11.38;;;7.38;;
10381;SDS011;11635;53.636;10.120;2022-12-20T03:16:05;8.48;;;7.07;;
10381;SDS011;11635;53.636;10.120;2022-12-20T03:18:31;13.43;;;7.55;;
10381;SDS011;11635;53.636;10.120;2022-12-20T03:20:59;11.88;;;7.40;;
10381;SDS011;11635;53.636;10.120;2022-12-20T03:23:25;9.43;;;7.25;;
10381;SDS011;11635;53.636;10.120;2022-12-20T03:25:52;10.40;;;6.90;;
10381;SDS011;11635;53.636;10.120;2022-12-20T03:28:18;10.63;;;7.13;;
10381;SDS011;11635;53.636;10.120;2022-12-20T03:30:45;10.20;;;6.93;;
10381;SDS011;11635;53.636;10.120;2022-12-20T03:33:11;10.88;;;6.72;;
10381;SDS011;11635;53.636;10.120;2022-12-20T03:35:38;9.90;;;6.97;;
10381;SDS011;11635;53.636;10.120;2022-12-20T03:38:06;9.82;;;6.95;;
10381;SDS011;11635;53.636;10.120;2022-12-20T03:40:32;9.48;;;6.55;;
10381;SDS011;11635;53.636;10.120;2022-12-20T03:42:58;8.63;;;7.13;;
10381;SDS011;11635;53.636;10.120;2022-12-20T03:45:25;8.70;;;6.70;;
10381;SDS011;11635;53.636;10.120;2022-12-20T03:47:51;10.05;;;7.22;;
10381;SDS011;11635;53.636;10.120;2022-12-20T03:50:17;8.75;;;6.78;;
10381;SDS011;11635;53.636;10.120;2022-12-20T03:52:44;8.35;;;6.25;;
10381;SDS011;11635;53.636;10.120;2022-12-20T03:55:11;8.85;;;6.60;;
10381;SDS011;11635;53.636;10.120;2022-12-20T03:57:38;9.13;;;6.72;;
10381;SDS011;11635;53.636;10.120;2022-12-20T04:00:06;9.55;;;6.75;;
10381;SDS011;11635;53.636;10.120;2022-12-20T04:02:33;7.85;;;6.15;;
10381;SDS011;11635;53.636;10.120;2022-12-20T04:04:59;10.32;;;6.32;;
10381;SDS011;11635;53.636;10.120;2022-12-20T04:07:25;10.50;;;6.55;;
10381;SDS011;11635;53.636;10.120;2022-12-20T04:09:52;9.05;;;6.28;;
10381;SDS011;11635;53.636;10.120;2022-12-20T04:12:19;9.52;;;6.32;;
10381;SDS011;11635;53.636;10.120;2022-12-20T04:14:46;7.90;;;6.25;;
10381;SDS011;11635;53.636;10.120;2022-12-20T04:17:12;7.70;;;6.65;;
10381;SDS011;11635;53.636;10.120;2022-12-20T04:19:38;11.98;;;6.95;;
10381;SDS011;11635;53.636;10.120;2022-12-20T04:22:05;9.45;;;6.32;;
10381;SDS011;11635;53.636;10.120;2022-12-20T04:24:31;7.95;;;6.13;;
10381;SDS011;11635;53.636;10.120;2022-12-20T04:26:57;7.55;;;6.25;;
10381;SDS011;11635;53.636;10.120;2022-12-20T04:29:26;11.73;;;7.07;;
10381;SDS011;11635;53.636;10.120;2022-12-20T04:31:52;9.07;;;5.97;;
10381;SDS011;11635;53.636;10.120;2022-12-20T04:34:18;8.45;;;6.32;;
10381;SDS011;11635;53.636;10.120;2022-12-20T04:36:45;8.57;;;6.63;;
10381;SDS011;11635;53.636;10.120;2022-12-20T04:39:11;8.10;;;6.57;;
10381;SDS011;11635;53.636;10.120;2022-12-20T04:41:37;9.00;;;6.88;;
10381;SDS011;11635;53.636;10.120;2022-12-20T04:44:04;10.15;;;6.88;;
10381;SDS011;11635;53.636;10.120;2022-12-20T04:46:31;9.18;;;6.85;;
10381;SDS011;11635;53.636;10.120;2022-12-20T04:48:58;8.55;;;7.22;;
10381;SDS011;11635;53.636;10.120;2022-12-20T04:51:24;10.15;;;6.80;;
10381;SDS011;11635;53.636;10.120;2022-12-20T04:53:50;9.77;;;6.60;;
10381;SDS011;11635;53.636;10.120;2022-12-20T04:56:16;8.77;;;6.72;;
10381;SDS011;11635;53.636;10.120;2022-12-20T04:58:43;7.60;;;6.63;;
10381;SDS011;11635;53.636;10.120;2022-12-20T05:01:10;8.60;;;6.55;;
10381;SDS011;11635;53.636;10.120;2022-12-20T05:03:37;9.20;;;6.72;;
10381;SDS011;11635;53.636;10.120;2022-12-20T05:06:04;8.85;;;7.15;;
10381;SDS011;11635;53.636;10.120;2022-12-20T05:08:30;9.63;;;7.40;;
10381;SDS011;11635;53.636;10.120;2022-12-20T05:10:57;13.30;;;8.05;;
10381;SDS011;11635;53.636;10.120;2022-12-20T05:13:23;8.70;;;7.30;;
10381;SDS011;11635;53.636;10.120;2022-12-20T05:15:50;9.98;;;7.38;;
10381;SDS011;11635;53.636;10.120;2022-12-20T05:18:17;9.43;;;8.32;;
10381;SDS011;11635;53.636;10.120;2022-12-20T05:20:44;11.77;;;7.57;;
10381;SDS011;11635;53.636;10.120;2022-12-20T05:23:11;12.00;;;8.48;;
10381;SDS011;11635;53.636;10.120;2022-12-20T05:25:54;9.90;;;7.25;;
10381;SDS011;11635;53.636;10.120;2022-12-20T05:28:38;12.25;;;8.07;;
10381;SDS011;11635;53.636;10.120;2022-12-20T05:31:05;9.85;;;8.13;;
10381;SDS011;11635;53.636;10.120;2022-12-20T05:33:31;11.18;;;9.13;;
10381;SDS011;11635;53.636;10.120;2022-12-20T05:35:59;11.35;;;7.85;;
10381;SDS011;11635;53.636;10.120;2022-12-20T05:38:26;10.00;;;7.72;;
10381;SDS011;11635;53.636;10.120;2022-12-20T05:40:52;12.73;;;9.00;;
10381;SDS011;11635;53.636;10.120;2022-12-20T05:43:19;12.20;;;8.90;;
10381;SDS011;11635;53.636;10.120;2022-12-20T05:45:46;12.88;;;9.00;;
10381;SDS011;11635;53.636;10.120;2022-12-20T05:48:13;11.77;;;8.65;;
10381;SDS011;11635;53.636;10.120;2022-12-20T05:50:39;10.40;;;8.77;;
10381;SDS011;11635;53.636;10.120;2022-12-20T05:53:09;12.07;;;9.32;;
10381;SDS011;11635;53.636;10.120;2022-12-20T05:55:35;11.27;;;8.52;;
10381;SDS011;11635;53.636;10.120;2022-12-20T05:58:04;11.23;;;8.38;;
10381;SDS011;11635;53.636;10.120;2022-12-20T06:00:30;14.20;;;9.38;;
10381;SDS011;11635;53.636;10.120;2022-12-20T06:02:57;12.98;;;8.85;;
10381;SDS011;11635;53.636;10.120;2022-12-20T06:05:24;12.30;;;9.63;;
10381;SDS011;11635;53.636;10.120;2022-12-20T06:07:51;13.35;;;10.35;;
10381;SDS011;11635;53.636;10.120;2022-12-20T06:10:18;16.08;;;11.55;;
10381;SDS011;11635;53.636;10.120;2022-12-20T06:12:45;13.10;;;9.88;;
10381;SDS011;11635;53.636;10.120;2022-12-20T06:15:11;15.77;;;10.82;;
10381;SDS011;11635;53.636;10.120;2022-12-20T06:17:39;13.65;;;10.38;;
10381;SDS011;11635;53.636;10.120;2022-12-20T06:20:06;15.15;;;10.43;;
10381;SDS011;11635;53.636;10.120;2022-12-20T06:22:32;13.00;;;10.13;;
10381;SDS011;11635;53.636;10.120;2022-12-20T06:24:59;14.35;;;10.02;;
10381;SDS011;11635;53.636;10.120;2022-12-20T06:27:27;13.63;;;10.95;;
10381;SDS011;11635;53.636;10.120;2022-12-20T06:29:53;19.77;;;11.10;;
10381;SDS011;11635;53.636;10.120;2022-12-20T06:32:19;13.35;;;10.50;;
10381;SDS011;11635;53.636;10.120;2022-12-20T06:34:46;19.00;;;11.95;;
10381;SDS011;11635;53.636;10.120;2022-12-20T06:37:12;16.33;;;10.85;;
10381;SDS011;11635;53.636;10.120;2022-12-20T06:39:38;14.23;;;10.10;;
10381;SDS011;11635;53.636;10.120;2022-12-20T06:42:05;15.13;;;11.70;;
10381;SDS011;11635;53.636;10.120;2022-12-20T06:44:33;12.75;;;10.27;;
10381;SDS011;11635;53.636;10.120;2022-12-20T06:46:59;15.75;;;10.55;;
10381;SDS011;11635;53.636;10.120;2022-12-20T06:49:26;12.02;;;10.05;;
10381;SDS011;11635;53.636;10.120;2022-12-20T06:51:52;16.42;;;10.32;;
10381;SDS011;11635;53.636;10.120;2022-12-20T06:54:19;15.93;;;10.85;;
10381;SDS011;11635;53.636;10.120;2022-12-20T06:56:45;15.48;;;10.45;;
10381;SDS011;11635;53.636;10.120;2022-12-20T06:59:11;14.02;;;10.90;;
10381;SDS011;11635;53.636;10.120;2022-12-20T07:01:39;14.75;;;10.98;;
10381;SDS011;11635;53.636;10.120;2022-12-20T07:04:05;16.58;;;11.20;;
10381;SDS011;11635;53.636;10.120;2022-12-20T07:06:32;13.13;;;10.85;;
10381;SDS011;11635;53.636;10.120;2022-12-20T07:08:58;13.98;;;11.00;;
10381;SDS011;11635;53.636;10.120;2022-12-20T07:11:24;16.60;;;10.65;;
10381;SDS011;11635;53.636;10.120;2022-12-20T07:13:53;12.63;;;10.57;;
10381;SDS011;11635;53.636;10.120;2022-12-20T07:16:19;14.73;;;11.32;;
10381;SDS011;11635;53.636;10.120;2022-12-20T07:18:49;14.85;;;10.57;;
10381;SDS011;11635;53.636;10.120;2022-12-20T07:21:16;15.27;;;10.68;;
10381;SDS011;11635;53.636;10.120;2022-12-20T07:23:43;15.25;;;10.63;;
10381;SDS011;11635;53.636;10.120;2022-12-20T07:26:09;16.52;;;10.88;;
10381;SDS011;11635;53.636;10.120;2022-12-20T07:28:37;16.45;;;11.07;;
10381;SDS011;11635;53.636;10.120;2022-12-20T07:31:03;19.10;;;11.75;;
10381;SDS011;11635;53.636;10.120;2022-12-20T07:33:30;16.95;;;11.93;;
10381;SDS011;11635;53.636;10.120;2022-12-20T07:36:00;14.93;;;10.55;;
10381;SDS011;11635;53.636;10.120;2022-12-20T07:38:26;14.93;;;11.60;;
10381;SDS011;11635;53.636;10.120;2022-12-20T07:40:53;15.90;;;11.85;;
10381;SDS011;11635;53.636;10.120;2022-12-20T07:43:20;18.88;;;12.48;;
10381;SDS011;11635;53.636;10.120;2022-12-20T07:45:46;18.67;;;12.15;;
10381;SDS011;11635;53.636;10.120;2022-12-20T07:48:13;15.23;;;11.48;;
10381;SDS011;11635;53.636;10.120;2022-12-20T07:50:40;15.35;;;12.45;;
10381;SDS011;11635;53.636;10.120;2022-12-20T07:53:08;19.45;;;12.38;;
10381;SDS011;11635;53.636;10.120;2022-12-20T07:55:34;17.17;;;12.02;;
10381;SDS011;11635;53.636;10.120;2022-12-20T07:58:03;19.05;;;12.60;;
10381;SDS011;11635;53.636;10.120;2022-12-20T08:00:29;18.23;;;12.93;;
10381;SDS011;11635;53.636;10.120;2022-12-20T08:02:57;19.55;;;13.43;;
10381;SDS011;11635;53.636;10.120;2022-12-20T08:05:25;19.92;;;12.80;;
10381;SDS011;11635;53.636;10.120;2022-12-20T08:07:52;22.90;;;13.48;;
10381;SDS011;11635;53.636;10.120;2022-12-20T08:10:20;17.33;;;13.27;;
10381;SDS011;11635;53.636;10.120;2022-12-20T08:12:47;19.50;;;13.13;;
10381;SDS011;11635;53.636;10.120;2022-12-20T08:15:14;19.27;;;12.90;;
10381;SDS011;11635;53.636;10.120;2022-12-20T08:17:40;18.33;;;12.75;;
10381;SDS011;11635;53.636;10.120;2022-12-20T08:20:07;17.27;;;12.70;;
10381;SDS011;11635;53.636;10.120;2022-12-20T08:22:33;19.60;;;13.57;;
10381;SDS011;11635;53.636;10.120;2022-12-20T08:25:00;19.77;;;12.60;;
10381;SDS011;11635;53.636;10.120;2022-12-20T08:27:28;18.48;;;13.02;;
10381;SDS011;11635;53.636;10.120;2022-12-20T08:29:54;15.18;;;12.80;;
10381;SDS011;11635;53.636;10.120;2022-12-20T08:32:21;19.27;;;12.98;;
10381;SDS011;11635;53.636;10.120;2022-12-20T08:34:47;17.88;;;13.15;;
10381;SDS011;11635;53.636;10.120;2022-12-20T08:37:14;18.33;;;12.50;;
10381;SDS011;11635;53.636;10.120;2022-12-20T08:39:41;19.00;;;13.20;;
10381;SDS011;11635;53.636;10.120;2022-12-20T08:42:07;15.50;;;12.90;;
10381;SDS011;11635;53.636;10.120;2022-12-20T08:44:35;17.27;;;12.00;;
10381;SDS011;11635;53.636;10.120;2022-12-20T08:47:01;15.98;;;12.23;;
10381;SDS011;11635;53.636;10.120;2022-12-20T08:49:27;15.95;;;12.23;;
10381;SDS011;11635;53.636;10.120;2022-12-20T08:51:54;16.73;;;12.07;;
10381;SDS011;11635;53.636;10.120;2022-12-20T08:54:20;17.17;;;12.18;;
10381;SDS011;11635;53.636;10.120;2022-12-20T08:56:47;17.65;;;12.45;;
10381;SDS011;11635;53.636;10.120;2022-12-20T08:59:13;18.60;;;11.65;;
10381;SDS011;11635;53.636;10.120;2022-12-20T09:01:41;14.00;;;11.30;;
10381;SDS011;11635;53.636;10.120;2022-12-20T09:04:08;17.35;;;12.68;;
10381;SDS011;11635;53.636;10.120;2022-12-20T09:06:34;15.07;;;12.00;;
10381;SDS011;11635;53.636;10.120;2022-12-20T09:09:01;16.17;;;10.68;;
10381;SDS011;11635;53.636;10.120;2022-12-20T09:11:28;18.25;;;12.60;;
10381;SDS011;11635;53.636;10.120;2022-12-20T09:13:55;14.80;;;11.65;;
10381;SDS011;11635;53.636;10.120;2022-12-20T09:16:22;16.20;;;10.98;;
10381;SDS011;11635;53.636;10.120;2022-12-20T09:18:50;12.35;;;9.88;;
10381;SDS011;11635;53.636;10.120;2022-12-20T09:21:17;14.63;;;11.27;;
10381;SDS011;11635;53.636;10.120;2022-12-20T09:23:44;16.00;;;11.65;;
10381;SDS011;11635;53.636;10.120;2022-12-20T09:26:11;13.25;;;10.13;;
10381;SDS011;11635;53.636;10.120;2022-12-20T09:28:37;13.32;;;10.55;;
10381;SDS011;11635;53.636;10.120;2022-12-20T09:31:06;15.50;;;11.18;;
10381;SDS011;11635;53.636;10.120;2022-12-20T09:33:32;11.98;;;10.32;;
10381;SDS011;11635;53.636;10.120;2022-12-20T09:36:01;15.48;;;10.02;;
10381;SDS011;11635;53.636;10.120;2022-12-20T09:38:27;14.95;;;10.80;;
10381;SDS011;11635;53.636;10.120;2022-12-20T09:40:56;14.25;;;10.68;;
10381;SDS011;11635;53.636;10.120;2022-12-20T09:43:23;14.02;;;9.93;;
10381;SDS011;11635;53.636;10.120;2022-12-20T09:45:50;13.18;;;9.68;;
10381;SDS011;11635;53.636;10.120;2022-12-20T09:48:18;10.65;;;8.57;;
10381;SDS011;11635;53.636;10.120;2022-12-20T09:50:46;12.52;;;9.60;;
10381;SDS011;11635;53.636;10.120;2022-12-20T09:53:16;11.70;;;9.50;;
10381;SDS011;11635;53.636;10.120;2022-12-20T09:55:48;12.23;;;9.18;;
10381;SDS011;11635;53.636;10.120;2022-12-20T09:58:20;14.02;;;9.60;;
10381;SDS011;11635;53.636;10.120;2022-12-20T10:00:50;11.65;;;9.35;;
10381;SDS011;11635;53.636;10.120;2022-12-20T10:03:18;13.20;;;9.32;;
10381;SDS011;11635;53.636;10.120;2022-12-20T10:05:45;12.02;;;8.70;;
10381;SDS011;11635;53.636;10.120;2022-12-20T10:08:19;11.77;;;9.07;;
10381;SDS011;11635;53.636;10.120;2022-12-20T10:10:50;12.63;;;9.45;;
10381;SDS011;11635;53.636;10.120;2022-12-20T10:16:09;11.50;;;8.60;;
10381;SDS011;11635;53.636;10.120;2022-12-20T10:18:41;12.02;;;9.30;;
10381;SDS011;11635;53.636;10.120;2022-12-20T10:21:14;12.23;;;9.23;;
10381;SDS011;11635;53.636;10.120;2022-12-20T10:23:55;14.05;;;10.35;;
10381;SDS011;11635;53.636;10.120;2022-12-20T10:26:22;12.57;;;9.38;;
10381;SDS011;11635;53.636;10.120;2022-12-20T10:28:49;14.52;;;9.30;;
10381;SDS011;11635;53.636;10.120;2022-12-20T10:31:16;10.70;;;9.30;;
10381;SDS011;11635;53.636;10.120;2022-12-20T10:33:43;13.20;;;9.55;;
10381;SDS011;11635;53.636;10.120;2022-12-20T10:36:20;13.18;;;9.60;;
10381;SDS011;11635;53.636;10.120;2022-12-20T10:38:49;12.48;;;9.80;;
10381;SDS011;11635;53.636;10.120;2022-12-20T10:41:16;13.15;;;9.57;;
10381;SDS011;11635;53.636;10.120;2022-12-20T10:43:43;13.50;;;9.20;;
10381;SDS011;11635;53.636;10.120;2022-12-20T10:46:10;11.50;;;9.02;;
10381;SDS011;11635;53.636;10.120;2022-12-20T10:48:37;13.50;;;8.80;;
10381;SDS011;11635;53.636;10.120;2022-12-20T10:51:12;13.35;;;9.57;;
10381;SDS011;11635;53.636;10.120;2022-12-20T10:53:50;12.32;;;8.95;;
10381;SDS011;11635;53.636;10.120;2022-12-20T10:56:17;15.13;;;9.40;;
10381;SDS011;11635;53.636;10.120;2022-12-20T10:58:50;12.50;;;9.02;;
10381;SDS011;11635;53.636;10.120;2022-12-20T11:01:18;10.57;;;8.07;;
10381;SDS011;11635;53.636;10.120;2022-12-20T11:03:48;11.40;;;8.63;;
10381;SDS011;11635;53.636;10.120;2022-12-20T11:06:16;12.55;;;8.50;;
10381;SDS011;11635;53.636;10.120;2022-12-20T11:08:42;11.02;;;8.90;;
10381;SDS011;11635;53.636;10.120;2022-12-20T11:11:12;11.98;;;8.50;;
10381;SDS011;11635;53.636;10.120;2022-12-20T11:13:38;10.30;;;7.93;;
10381;SDS011;11635;53.636;10.120;2022-12-20T11:16:08;13.02;;;8.35;;
10381;SDS011;11635;53.636;10.120;2022-12-20T11:18:47;10.73;;;8.38;;
10381;SDS011;11635;53.636;10.120;2022-12-20T11:21:20;8.55;;;6.95;;
10381;SDS011;11635;53.636;10.120;2022-12-20T11:23:52;10.18;;;7.65;;
10381;SDS011;11635;53.636;10.120;2022-12-20T11:26:27;8.55;;;7.43;;
10381;SDS011;11635;53.636;10.120;2022-12-20T11:28:59;10.38;;;8.02;;
10381;SDS011;11635;53.636;10.120;2022-12-20T11:31:32;10.73;;;7.28;;
10381;SDS011;11635;53.636;10.120;2022-12-20T11:34:03;9.20;;;7.18;;
10381;SDS011;11635;53.636;10.120;2022-12-20T11:36:39;11.27;;;8.38;;
10381;SDS011;11635;53.636;10.120;2022-12-20T11:39:12;11.38;;;7.72;;
10381;SDS011;11635;53.636;10.120;2022-12-20T11:41:42;8.98;;;7.13;;
10381;SDS011;11635;53.636;10.120;2022-12-20T11:44:14;11.60;;;7.05;;
10381;SDS011;11635;53.636;10.120;2022-12-20T11:46:55;10.50;;;6.63;;
10381;SDS011;11635;53.636;10.120;2022-12-20T11:49:31;9.63;;;7.40;;
10381;SDS011;11635;53.636;10.120;2022-12-20T11:52:02;10.93;;;7.93;;
10381;SDS011;11635;53.636;10.120;2022-12-20T11:54:31;9.65;;;7.47;;
10381;SDS011;11635;53.636;10.120;2022-12-20T11:57:01;8.73;;;6.97;;
10381;SDS011;11635;53.636;10.120;2022-12-20T11:59:30;12.15;;;7.82;;
10381;SDS011;11635;53.636;10.120;2022-12-20T12:02:00;10.43;;;7.85;;
10381;SDS011;11635;53.636;10.120;2022-12-20T12:04:29;12.15;;;7.45;;
10381;SDS011;11635;53.636;10.120;2022-12-20T12:06:57;9.50;;;7.30;;
10381;SDS011;11635;53.636;10.120;2022-12-20T12:09:26;9.68;;;6.82;;
10381;SDS011;11635;53.636;10.120;2022-12-20T12:11:55;9.57;;;7.20;;
10381;SDS011;11635;53.636;10.120;2022-12-20T12:14:29;9.02;;;6.50;;
10381;SDS011;11635;53.636;10.120;2022-12-20T12:16:57;9.55;;;7.07;;
10381;SDS011;11635;53.636;10.120;2022-12-20T12:19:25;9.15;;;6.97;;
10381;SDS011;11635;53.636;10.120;2022-12-20T12:21:56;9.80;;;7.25;;
10381;SDS011;11635;53.636;10.120;2022-12-20T12:24:23;8.38;;;6.72;;
10381;SDS011;11635;53.636;10.120;2022-12-20T12:26:51;9.68;;;7.28;;
10381;SDS011;11635;53.636;10.120;2022-12-20T12:29:18;10.43;;;6.90;;
10381;SDS011;11635;53.636;10.120;2022-12-20T12:31:47;11.32;;;7.22;;
10381;SDS011;11635;53.636;10.120;2022-12-20T12:34:16;8.80;;;7.10;;
10381;SDS011;11635;53.636;10.120;2022-12-20T12:37:02;9.10;;;6.55;;
10381;SDS011;11635;53.636;10.120;2022-12-20T12:42:40;9.93;;;7.15;;
10381;SDS011;11635;53.636;10.120;2022-12-20T12:45:13;10.00;;;6.63;;
10381;SDS011;11635;53.636;10.120;2022-12-20T12:47:43;12.57;;;6.97;;
10381;SDS011;11635;53.636;10.120;2022-12-20T12:50:14;9.73;;;7.28;;
10381;SDS011;11635;53.636;10.120;2022-12-20T12:52:43;10.50;;;6.90;;
10381;SDS011;11635;53.636;10.120;2022-12-20T12:55:33;8.73;;;6.70;;
10381;SDS011;11635;53.636;10.120;2022-12-20T12:58:04;8.07;;;6.68;;
10381;SDS011;11635;53.636;10.120;2022-12-20T13:00:47;8.23;;;6.72;;
10381;SDS011;11635;53.636;10.120;2022-12-20T13:03:16;12.27;;;7.32;;
10381;SDS011;11635;53.636;10.120;2022-12-20T13:08:45;8.88;;;7.55;;
10381;SDS011;11635;53.636;10.120;2022-12-20T13:11:12;8.93;;;7.88;;
10381;SDS011;11635;53.636;10.120;2022-12-20T13:14:07;10.10;;;7.85;;
10381;SDS011;11635;53.636;10.120;2022-12-20T13:16:35;12.18;;;7.88;;
10381;SDS011;11635;53.636;10.120;2022-12-20T13:19:11;9.07;;;7.45;;
10381;SDS011;11635;53.636;10.120;2022-12-20T13:21:38;11.20;;;8.52;;
10381;SDS011;11635;53.636;10.120;2022-12-20T13:27:22;10.32;;;7.47;;
10381;SDS011;11635;53.636;10.120;2022-12-20T13:29:50;10.00;;;7.72;;
10381;SDS011;11635;53.636;10.120;2022-12-20T13:34:59;11.77;;;8.40;;
10381;SDS011;11635;53.636;10.120;2022-12-20T13:37:26;11.98;;;7.88;;
10381;SDS011;11635;53.636;10.120;2022-12-20T13:39:54;7.82;;;7.03;;
10381;SDS011;11635;53.636;10.120;2022-12-20T13:42:29;8.38;;;7.53;;
10381;SDS011;11635;53.636;10.120;2022-12-20T13:45:00;11.15;;;7.75;;
10381;SDS011;11635;53.636;10.120;2022-12-20T13:47:28;9.70;;;7.38;;
10381;SDS011;11635;53.636;10.120;2022-12-20T13:49:59;10.82;;;7.63;;
10381;SDS011;11635;53.636;10.120;2022-12-20T13:52:27;9.73;;;7.22;;
10381;SDS011;11635;53.636;10.120;2022-12-20T13:54:54;8.57;;;7.35;;
10381;SDS011;11635;53.636;10.120;2022-12-20T13:57:25;9.43;;;7.13;;
10381;SDS011;11635;53.636;10.120;2022-12-20T13:59:52;9.77;;;7.32;;
10381;SDS011;11635;53.636;10.120;2022-12-20T14:02:21;10.90;;;8.00;;
10381;SDS011;11635;53.636;10.120;2022-12-20T14:04:51;11.32;;;7.90;;
10381;SDS011;11635;53.636;10.120;2022-12-20T14:07:22;8.90;;;7.45;;
10381;SDS011;11635;53.636;10.120;2022-12-20T14:09:53;10.10;;;7.43;;
10381;SDS011;11635;53.636;10.120;2022-12-20T14:12:20;12.02;;;7.88;;
10381;SDS011;11635;53.636;10.120;2022-12-20T14:14:47;12.68;;;8.32;;
10381;SDS011;11635;53.636;10.120;2022-12-20T14:17:14;10.32;;;7.65;;
10381;SDS011;11635;53.636;10.120;2022-12-20T14:19:41;12.75;;;7.07;;
10381;SDS011;11635;53.636;10.120;2022-12-20T14:22:07;12.57;;;7.60;;
10381;SDS011;11635;53.636;10.120;2022-12-20T14:24:36;10.00;;;7.85;;
10381;SDS011;11635;53.636;10.120;2022-12-20T14:27:03;8.02;;;7.22;;
10381;SDS011;11635;53.636;10.120;2022-12-20T14:29:30;8.85;;;7.43;;
10381;SDS011;11635;53.636;10.120;2022-12-20T14:31:57;8.60;;;7.18;;
10381;SDS011;11635;53.636;10.120;2022-12-20T14:34:24;12.02;;;7.85;;
10381;SDS011;11635;53.636;10.120;2022-12-20T14:36:51;9.60;;;7.43;;
10381;SDS011;11635;53.636;10.120;2022-12-20T14:39:24;11.57;;;7.18;;
10381;SDS011;11635;53.636;10.120;2022-12-20T14:41:56;8.95;;;7.00;;